createdAt,value
2022-09-24T00:01:11.697Z,95.42
2022-09-24T00:03:42.546Z,95.38
2022-09-24T00:06:09.312Z,95.09
2022-09-24T00:08:36.009Z,95.25
2022-09-24T00:11:04.623Z,95.68
2022-09-24T00:13:31.537Z,95.68
2022-09-24T00:16:05.044Z,95.83
2022-09-24T00:18:32.062Z,95.76
2022-09-24T00:20:58.827Z,95.61
2022-09-24T00:23:25.529Z,95.79
2022-09-24T00:26:10.902Z,95.85
2022-09-24T00:28:37.622Z,95.72
2022-09-24T00:31:07.505Z,95.67
2022-09-24T00:33:35.002Z,95.76
2022-09-24T00:36:04.569Z,95.77
2022-09-24T00:38:32.091Z,95.56
2022-09-24T00:40:59.792Z,95.30
2022-09-24T00:43:37.525Z,95.12
2022-09-24T00:46:32.861Z,94.89
2022-09-24T00:49:10.445Z,94.97
2022-09-24T00:51:37.228Z,95.03
2022-09-24T00:54:04.661Z,95.03
2022-09-24T00:56:32.673Z,95.06
2022-09-24T00:59:02.095Z,94.87
2022-09-24T01:01:29.911Z,94.74
2022-09-24T01:03:57.315Z,94.83
2022-09-24T01:06:25.027Z,94.75
2022-09-24T01:08:51.774Z,94.92
2022-09-24T01:11:27.634Z,94.92
2022-09-24T01:14:09.101Z,94.98
2022-09-24T01:16:56.544Z,94.99
2022-09-24T01:19:38.554Z,94.99
2022-09-24T01:22:31.317Z,94.93
2022-09-24T01:25:02.588Z,94.91
2022-09-24T01:27:59.683Z,94.80
2022-09-24T01:30:28.138Z,94.82
2022-09-24T01:32:56.605Z,94.68
2022-09-24T01:35:27.512Z,94.66
2022-09-24T01:38:03.379Z,94.61
2022-09-24T01:40:30.408Z,94.58
2022-09-24T01:42:57.873Z,94.53
2022-09-24T01:45:25.604Z,94.63
2022-09-24T01:48:54.501Z,94.58
2022-09-24T01:51:39.671Z,94.56
2022-09-24T01:54:12.453Z,94.55
2022-09-24T01:56:45.431Z,94.45
2022-09-24T01:59:19.533Z,94.37
2022-09-24T02:01:58.290Z,94.37
2022-09-24T02:04:25.947Z,94.39
2022-09-24T02:07:04.844Z,94.48
2022-09-24T02:09:36.448Z,94.42
2022-09-24T02:12:14.476Z,94.63
2022-09-24T02:14:44.922Z,94.86
2022-09-24T02:17:11.770Z,94.97
2022-09-24T02:19:38.562Z,95.08
2022-09-24T02:22:06.259Z,95.16
2022-09-24T02:24:57.265Z,95.35
2022-09-24T02:27:28.687Z,95.26
2022-09-24T02:29:56.761Z,95.19
2022-09-24T02:32:23.745Z,95.30
2022-09-24T02:34:52.656Z,95.44
2022-09-24T02:37:20.506Z,95.46
2022-09-24T02:39:48.325Z,95.48
2022-09-24T02:42:15.102Z,95.35
2022-09-24T02:44:41.789Z,95.34
2022-09-24T02:47:08.493Z,95.51
2022-09-24T02:49:35.318Z,95.48
2022-09-24T02:52:02.426Z,95.49
2022-09-24T02:54:29.171Z,95.56
2022-09-24T02:56:55.774Z,95.56
2022-09-24T02:59:22.703Z,95.64
2022-09-24T03:01:50.225Z,95.78
2022-09-24T03:04:17.226Z,95.89
2022-09-24T03:06:43.891Z,95.81
2022-09-24T03:09:13.797Z,95.77
2022-09-24T03:11:40.822Z,95.91
2022-09-24T03:14:07.805Z,95.85
2022-09-24T03:16:34.760Z,95.60
2022-09-24T03:19:01.556Z,95.50
2022-09-24T03:21:28.296Z,95.47
2022-09-24T03:23:55.024Z,95.42
2022-09-24T03:26:21.688Z,95.37
2022-09-24T03:28:48.443Z,95.36
2022-09-24T03:31:15.185Z,95.56
2022-09-24T03:33:43.599Z,95.70
2022-09-24T03:36:19.222Z,95.74
2022-09-24T03:38:46.383Z,95.73
2022-09-24T03:41:13.356Z,95.57
2022-09-24T03:43:40.300Z,95.52
2022-09-24T03:46:07.565Z,95.63
2022-09-24T03:48:35.766Z,95.57
2022-09-24T03:51:06.735Z,95.51
2022-09-24T03:53:33.659Z,95.62
2022-09-24T03:56:02.513Z,95.36
2022-09-24T03:58:31.377Z,95.26
2022-09-24T04:00:58.333Z,95.22
2022-09-24T04:03:25.348Z,95.18
2022-09-24T04:05:52.102Z,95.07
2022-09-24T04:08:21.416Z,94.86
2022-09-24T04:10:48.842Z,94.91
2022-09-24T04:13:16.162Z,94.90
2022-09-24T04:15:42.880Z,95.09
2022-09-24T04:18:09.563Z,94.96
2022-09-24T04:20:36.919Z,94.89
2022-09-24T04:23:03.834Z,94.91
2022-09-24T04:25:31.379Z,94.92
2022-09-24T04:27:59.713Z,94.88
2022-09-24T04:30:26.654Z,94.83
2022-09-24T04:32:53.389Z,95.02
2022-09-24T04:35:23.307Z,94.90
2022-09-24T04:37:50.205Z,94.78
2022-09-24T04:40:17.287Z,94.94
2022-09-24T04:42:46.406Z,94.97
2022-09-24T04:45:14.102Z,95.04
2022-09-24T04:47:41.041Z,94.79
2022-09-24T04:50:08.887Z,94.74
2022-09-24T04:52:35.579Z,94.57
2022-09-24T04:55:02.376Z,94.30
2022-09-24T04:57:29.111Z,94.35
2022-09-24T04:59:55.825Z,94.47
2022-09-24T05:02:24.211Z,94.52
2022-09-24T05:04:51.026Z,94.52
2022-09-24T05:07:17.760Z,94.75
2022-09-24T05:09:44.521Z,94.80
2022-09-24T05:12:11.488Z,94.57
2022-09-24T05:14:38.204Z,94.64
2022-09-24T05:17:05.267Z,94.67
2022-09-24T05:19:32.009Z,94.78
2022-09-24T05:21:58.984Z,94.93
2022-09-24T05:24:25.725Z,94.90
2022-09-24T05:27:10.742Z,95.09
2022-09-24T05:29:39.006Z,95.07
2022-09-24T05:32:06.902Z,95.11
2022-09-24T05:34:34.000Z,95.04
2022-09-24T05:37:01.258Z,94.99
2022-09-24T05:39:33.485Z,95.02
2022-09-24T05:42:04.346Z,94.79
2022-09-24T05:44:31.634Z,94.80
2022-09-24T05:46:58.433Z,94.88
2022-09-24T05:49:25.126Z,94.80
2022-09-24T05:51:51.862Z,94.56
2022-09-24T05:54:18.552Z,94.48
2022-09-24T05:56:45.683Z,94.44
2022-09-24T05:59:13.103Z,94.31
2022-09-24T06:01:40.258Z,94.20
2022-09-24T06:04:09.077Z,94.30
2022-09-24T06:06:36.168Z,94.27
2022-09-24T06:09:02.907Z,94.32
2022-09-24T06:11:39.677Z,93.93
2022-09-24T06:14:08.631Z,93.75
2022-09-24T06:16:35.828Z,93.30
2022-09-24T06:19:02.748Z,93.36
2022-09-24T06:21:29.567Z,93.31
2022-09-24T06:23:56.270Z,93.06
2022-09-24T06:26:23.049Z,92.68
2022-09-24T06:28:49.711Z,92.17
2022-09-24T06:31:16.505Z,92.03
2022-09-24T06:33:43.286Z,92.21
2022-09-24T06:36:10.375Z,92.38
2022-09-24T06:38:39.395Z,92.46
2022-09-24T06:41:06.402Z,92.14
2022-09-24T06:43:33.586Z,91.98
2022-09-24T06:46:00.579Z,92.17
2022-09-24T06:48:27.753Z,92.23
2022-09-24T06:50:57.391Z,92.01
2022-09-24T06:53:24.260Z,92.15
2022-09-24T06:55:50.948Z,91.78
2022-09-24T06:58:20.136Z,91.42
2022-09-24T07:01:02.487Z,91.33
2022-09-24T07:03:33.001Z,90.99
2022-09-24T07:06:09.698Z,90.72
2022-09-24T07:08:36.471Z,89.86
2022-09-24T07:11:03.208Z,89.52
2022-09-24T07:13:30.590Z,89.63
2022-09-24T07:15:57.341Z,89.31
2022-09-24T07:18:23.994Z,89.05
2022-09-24T07:20:54.460Z,88.30
2022-09-24T07:23:21.722Z,87.90
2022-09-24T07:25:48.565Z,86.99
2022-09-24T07:28:19.011Z,86.64
2022-09-24T07:30:45.809Z,86.51
2022-09-24T07:33:12.521Z,86.36
2022-09-24T07:35:39.601Z,85.73
2022-09-24T07:38:08.083Z,85.32
2022-09-24T07:40:34.955Z,85.32
2022-09-24T07:43:01.694Z,85.49
2022-09-24T07:45:29.749Z,85.21
2022-09-24T07:48:00.925Z,85.33
2022-09-24T07:50:28.652Z,85.54
2022-09-24T07:52:55.437Z,85.82
2022-09-24T07:55:22.365Z,85.28
2022-09-24T07:57:50.065Z,84.39
2022-09-24T08:00:18.003Z,82.58
2022-09-24T08:02:45.751Z,80.61
2022-09-24T08:05:13.095Z,80.24
2022-09-24T08:07:39.877Z,81.09
2022-09-24T08:10:06.650Z,81.44
2022-09-24T08:12:33.562Z,81.60
2022-09-24T08:15:00.267Z,81.41
2022-09-24T08:17:26.959Z,81.11
2022-09-24T08:19:56.933Z,80.46
2022-09-24T08:22:24.981Z,79.74
2022-09-24T08:24:52.905Z,79.94
2022-09-24T08:27:23.861Z,79.86
2022-09-24T08:29:51.363Z,80.13
2022-09-24T08:32:18.167Z,80.67
2022-09-24T08:34:45.448Z,80.52
2022-09-24T08:37:13.506Z,80.67
2022-09-24T08:39:40.321Z,78.76
2022-09-24T08:42:07.171Z,77.00
2022-09-24T08:44:58.155Z,75.86
2022-09-24T08:47:35.031Z,75.98
2022-09-24T08:50:13.446Z,76.46
2022-09-24T08:52:46.151Z,76.52
2022-09-24T08:55:22.559Z,75.10
2022-09-24T08:57:59.396Z,74.15
2022-09-24T09:00:29.321Z,73.28
2022-09-24T09:03:03.901Z,72.86
2022-09-24T09:05:49.134Z,73.62
2022-09-24T09:08:55.039Z,74.52
2022-09-24T09:11:23.586Z,73.98
2022-09-24T09:13:57.984Z,74.09
2022-09-24T09:16:27.890Z,74.87
2022-09-24T09:18:58.728Z,74.88
2022-09-24T09:21:41.935Z,74.91
2022-09-24T09:24:24.214Z,74.56
2022-09-24T09:26:54.086Z,74.79
2022-09-24T09:29:22.728Z,74.17
2022-09-24T09:32:04.999Z,74.14
2022-09-24T09:34:41.031Z,72.82
2022-09-24T09:37:52.294Z,72.66
2022-09-24T09:40:41.930Z,73.30
2022-09-24T09:43:11.078Z,74.38
2022-09-24T09:45:47.818Z,75.46
2022-09-24T09:48:16.554Z,76.34
2022-09-24T09:50:50.855Z,76.81
2022-09-24T09:53:21.900Z,77.21
2022-09-24T09:55:57.758Z,78.14
2022-09-24T09:58:26.041Z,78.76
2022-09-24T10:00:52.829Z,79.54
2022-09-24T10:03:22.786Z,80.08
2022-09-24T10:05:56.655Z,80.55
2022-09-24T10:08:24.180Z,81.09
2022-09-24T10:11:00.961Z,81.81
2022-09-24T10:13:27.833Z,82.12
2022-09-24T10:15:56.708Z,82.57
2022-09-24T10:18:39.339Z,82.49
2022-09-24T10:21:09.467Z,82.68
2022-09-24T10:23:40.256Z,82.40
2022-09-24T10:26:06.983Z,83.03
2022-09-24T10:28:58.824Z,84.01
2022-09-24T10:31:27.103Z,83.92
2022-09-24T10:33:55.985Z,83.30
2022-09-24T10:36:27.567Z,81.46
2022-09-24T10:39:14.609Z,80.69
2022-09-24T10:41:48.317Z,80.68
2022-09-24T10:44:15.055Z,79.97
2022-09-24T10:46:41.701Z,78.49
2022-09-24T10:49:46.100Z,76.53
2022-09-24T10:52:18.820Z,76.93
2022-09-24T10:55:27.156Z,76.81
2022-09-24T10:58:03.156Z,76.38
2022-09-24T11:00:39.068Z,76.30
2022-09-24T11:03:24.575Z,75.67
2022-09-24T11:05:57.180Z,75.89
2022-09-24T11:08:46.095Z,75.49
2022-09-24T11:11:37.302Z,74.51
2022-09-24T11:14:09.964Z,74.02
2022-09-24T11:16:52.520Z,73.82
2022-09-24T11:19:33.464Z,72.76
2022-09-24T11:22:15.993Z,72.20
2022-09-24T11:25:01.453Z,71.97
2022-09-24T11:27:39.105Z,72.32
2022-09-24T11:30:19.895Z,71.76
2022-09-24T11:33:13.039Z,71.23
2022-09-24T11:36:01.624Z,70.62
2022-09-24T11:38:40.014Z,70.42
2022-09-24T11:41:43.891Z,70.80
2022-09-24T11:44:47.920Z,70.76
2022-09-24T11:47:34.033Z,70.31
2022-09-24T11:50:26.861Z,69.22
2022-09-24T11:53:02.181Z,68.42
2022-09-24T11:55:36.040Z,67.99
2022-09-24T11:58:16.641Z,66.31
2022-09-24T12:00:55.849Z,65.12
2022-09-24T12:03:35.295Z,65.29
2022-09-24T12:06:07.603Z,66.80
2022-09-24T12:08:38.233Z,69.17
2022-09-24T12:11:10.548Z,70.67
2022-09-24T12:13:42.590Z,72.96
2022-09-24T12:16:15.594Z,74.28
2022-09-24T12:18:48.119Z,74.80
2022-09-24T12:21:18.518Z,74.31
2022-09-24T12:23:46.359Z,74.77
2022-09-24T12:26:16.390Z,75.87
2022-09-24T12:29:07.791Z,75.69
2022-09-24T12:32:06.794Z,75.34
2022-09-24T12:34:51.528Z,75.80
2022-09-24T12:37:21.019Z,75.16
2022-09-24T12:39:58.149Z,75.62
2022-09-24T12:42:26.101Z,75.71
2022-09-24T12:44:54.888Z,75.67
2022-09-24T12:47:26.781Z,74.88
2022-09-24T12:50:05.101Z,74.30
2022-09-24T12:52:32.948Z,74.22
2022-09-24T12:55:02.418Z,74.15
2022-09-24T12:57:41.493Z,73.55
2022-09-24T13:00:39.616Z,72.89
2022-09-24T13:03:06.951Z,72.65
2022-09-24T13:05:46.354Z,72.47
2022-09-24T13:08:13.011Z,72.61
2022-09-24T13:10:39.644Z,72.46
2022-09-24T13:13:21.512Z,72.30
2022-09-24T13:15:50.108Z,72.49
2022-09-24T13:18:19.981Z,72.05
2022-09-24T13:20:57.160Z,71.70
2022-09-24T13:23:24.728Z,71.66
2022-09-24T13:26:13.015Z,70.91
2022-09-24T13:28:51.077Z,71.17
2022-09-24T13:31:22.835Z,70.73
2022-09-24T13:33:51.591Z,70.07
2022-09-24T13:36:52.869Z,69.75
2022-09-24T13:39:27.131Z,69.37
2022-09-24T13:42:17.312Z,70.66
2022-09-24T13:44:47.120Z,70.79
2022-09-24T13:47:19.641Z,69.67
2022-09-24T13:49:47.108Z,69.97
2022-09-24T13:52:20.901Z,70.32
2022-09-24T13:54:49.980Z,70.95
2022-09-24T13:57:24.529Z,71.43
2022-09-24T14:00:04.501Z,71.91
2022-09-24T14:02:32.780Z,72.26
2022-09-24T14:05:45.172Z,72.16
2022-09-24T14:08:15.957Z,72.75
2022-09-24T14:10:42.790Z,73.01
2022-09-24T14:13:27.741Z,72.80
2022-09-24T14:15:59.543Z,73.05
2022-09-24T14:18:27.691Z,72.81
2022-09-24T14:21:10.313Z,72.27
2022-09-24T14:23:42.183Z,72.63
2022-09-24T14:26:09.011Z,71.78
2022-09-24T14:28:35.788Z,70.50
2022-09-24T14:31:02.512Z,70.29
2022-09-24T14:33:31.467Z,70.21
2022-09-24T14:35:58.462Z,69.41
2022-09-24T14:38:53.233Z,69.00
2022-09-24T14:41:22.868Z,67.98
2022-09-24T14:43:49.604Z,67.69
2022-09-24T14:46:17.526Z,67.58
2022-09-24T14:48:44.330Z,67.31
2022-09-24T14:51:30.152Z,66.95
2022-09-24T14:54:01.133Z,66.92
2022-09-24T14:56:32.473Z,66.46
2022-09-24T14:58:59.638Z,66.49
2022-09-24T15:01:33.541Z,66.55
2022-09-24T15:04:08.186Z,66.93
2022-09-24T15:06:35.646Z,66.50
2022-09-24T15:09:04.496Z,66.28
2022-09-24T15:11:36.134Z,66.68
2022-09-24T15:14:15.161Z,66.86
2022-09-24T15:16:42.224Z,67.95
2022-09-24T15:19:17.636Z,68.76
2022-09-24T15:21:45.200Z,69.74
2022-09-24T15:24:12.154Z,70.58
2022-09-24T15:26:41.019Z,71.06
2022-09-24T15:29:07.764Z,71.21
2022-09-24T15:31:34.482Z,71.91
2022-09-24T15:34:01.401Z,72.11
2022-09-24T15:36:28.189Z,72.56
2022-09-24T15:38:59.771Z,73.09
2022-09-24T15:41:26.670Z,73.29
2022-09-24T15:43:56.744Z,73.23
2022-09-24T15:46:23.773Z,73.51
2022-09-24T15:48:50.603Z,73.64
2022-09-24T15:51:17.951Z,73.76
2022-09-24T15:53:44.672Z,74.13
2022-09-24T15:56:11.636Z,73.96
2022-09-24T15:58:38.823Z,74.03
2022-09-24T16:01:05.678Z,74.15
2022-09-24T16:03:32.765Z,74.08
2022-09-24T16:05:59.920Z,74.17
2022-09-24T16:08:26.735Z,74.05
2022-09-24T16:10:53.665Z,73.73
2022-09-24T16:13:22.488Z,73.58
2022-09-24T16:15:49.485Z,73.43
2022-09-24T16:18:17.746Z,73.30
2022-09-24T16:20:47.536Z,73.55
2022-09-24T16:23:15.507Z,73.51
2022-09-24T16:25:43.311Z,73.28
2022-09-24T16:28:10.144Z,73.18
2022-09-24T16:30:38.774Z,73.20
2022-09-24T16:33:05.707Z,73.17
2022-09-24T16:35:32.422Z,73.31
2022-09-24T16:37:59.180Z,73.16
2022-09-24T16:40:26.120Z,73.27
2022-09-24T16:42:53.011Z,73.32
2022-09-24T16:45:19.882Z,73.61
2022-09-24T16:47:46.739Z,73.67
2022-09-24T16:50:13.675Z,73.92
2022-09-24T16:52:40.418Z,74.19
2022-09-24T16:55:07.525Z,74.45
2022-09-24T16:57:37.376Z,74.72
2022-09-24T17:00:08.359Z,74.87
2022-09-24T17:02:35.587Z,75.27
2022-09-24T17:05:02.464Z,75.41
2022-09-24T17:07:29.781Z,75.73
2022-09-24T17:10:15.759Z,76.01
2022-09-24T17:12:43.993Z,76.21
2022-09-24T17:15:11.554Z,76.44
2022-09-24T17:17:45.879Z,76.65
2022-09-24T17:20:16.926Z,76.75
2022-09-24T17:22:43.670Z,76.90
2022-09-24T17:25:10.401Z,76.93
2022-09-24T17:27:37.124Z,77.09
2022-09-24T17:30:04.461Z,77.45
2022-09-24T17:32:31.248Z,77.53
2022-09-24T17:34:57.934Z,77.77
2022-09-24T17:37:24.799Z,77.80
2022-09-24T17:39:51.594Z,78.23
2022-09-24T17:42:18.325Z,78.57
2022-09-24T17:44:46.284Z,78.69
2022-09-24T17:47:13.169Z,78.65
2022-09-24T17:49:39.989Z,78.95
2022-09-24T17:52:06.774Z,78.93
2022-09-24T17:54:33.645Z,79.10
2022-09-24T17:57:02.099Z,79.13
2022-09-24T17:59:29.095Z,79.26
2022-09-24T18:01:55.960Z,79.28
2022-09-24T18:04:23.168Z,79.33
2022-09-24T18:06:50.263Z,79.62
2022-09-24T18:09:18.197Z,79.58
2022-09-24T18:11:49.536Z,79.76
2022-09-24T18:14:17.900Z,79.87
2022-09-24T18:16:45.070Z,79.88
2022-09-24T18:19:12.914Z,80.07
2022-09-24T18:21:39.884Z,80.17
2022-09-24T18:24:06.979Z,80.24
2022-09-24T18:26:35.464Z,80.30
2022-09-24T18:29:10.265Z,80.40
2022-09-24T18:31:37.566Z,80.42
2022-09-24T18:34:06.288Z,80.39
2022-09-24T18:36:37.604Z,80.50
2022-09-24T18:41:46.577Z,80.46
2022-09-24T18:44:13.420Z,80.50
2022-09-24T18:46:40.469Z,80.43
2022-09-24T18:49:07.619Z,80.61
2022-09-24T18:51:36.524Z,80.48
2022-09-24T18:54:04.498Z,80.55
2022-09-24T18:56:31.714Z,80.53
2022-09-24T18:59:10.538Z,80.39
2022-09-24T19:01:38.410Z,80.40
2022-09-24T19:04:05.720Z,80.39
2022-09-24T19:06:34.044Z,80.26
2022-09-24T19:09:00.953Z,80.40
2022-09-24T19:11:29.900Z,80.30
2022-09-24T19:13:56.748Z,80.33
2022-09-24T19:16:24.015Z,80.26
2022-09-24T19:18:51.776Z,80.28
2022-09-24T19:21:18.748Z,80.24
2022-09-24T19:23:47.039Z,80.30
2022-09-24T19:26:16.515Z,80.31
2022-09-24T19:28:43.537Z,80.37
2022-09-24T19:31:15.094Z,80.13
2022-09-24T19:33:42.282Z,80.14
2022-09-24T19:36:09.195Z,80.19
2022-09-24T19:38:37.220Z,80.34
2022-09-24T19:41:12.902Z,80.26
2022-09-24T19:43:41.098Z,80.27
2022-09-24T19:46:09.707Z,80.29
2022-09-24T19:48:40.433Z,80.24
2022-09-24T19:51:31.018Z,80.41
2022-09-24T19:53:59.306Z,80.11
2022-09-24T19:56:26.411Z,80.02
2022-09-24T19:58:54.228Z,80.04
2022-09-24T20:01:22.206Z,79.96
2022-09-24T20:03:49.124Z,79.86
2022-09-24T20:06:23.108Z,79.82
2022-09-24T20:08:50.138Z,79.90
2022-09-24T20:11:21.856Z,79.74
2022-09-24T20:13:52.853Z,79.94
2022-09-24T20:16:21.859Z,79.72
2022-09-24T20:18:49.658Z,79.99
2022-09-24T20:21:17.985Z,79.94
2022-09-24T20:23:48.469Z,80.08
2022-09-24T20:26:34.806Z,80.11
2022-09-24T20:29:03.566Z,80.21
2022-09-24T20:31:30.393Z,80.32
2022-09-24T20:33:57.372Z,80.30
2022-09-24T20:36:25.301Z,80.38
2022-09-24T20:38:52.365Z,80.36
2022-09-24T20:41:22.121Z,80.37
2022-09-24T20:43:49.139Z,80.40
2022-09-24T20:46:17.853Z,80.51
2022-09-24T20:48:44.825Z,80.56
2022-09-24T20:51:12.919Z,80.58
2022-09-24T20:53:40.054Z,80.61
2022-09-24T20:56:07.067Z,80.68
2022-09-24T20:58:33.924Z,80.72
2022-09-24T21:01:01.079Z,80.73
2022-09-24T21:03:43.405Z,80.81
2022-09-24T21:06:11.827Z,80.85
2022-09-24T21:08:40.081Z,80.87
2022-09-24T21:11:11.900Z,80.91
2022-09-24T21:13:49.026Z,80.96
2022-09-24T21:16:20.784Z,81.02
2022-09-24T21:18:47.986Z,81.34
2022-09-24T21:21:16.972Z,81.28
2022-09-24T21:23:44.367Z,81.33
2022-09-24T21:26:14.495Z,81.30
2022-09-24T21:28:41.366Z,81.36
2022-09-24T21:31:08.462Z,81.35
2022-09-24T21:33:35.506Z,81.55
2022-09-24T21:36:02.777Z,81.61
2022-09-24T21:38:29.558Z,81.74
2022-09-24T21:40:56.340Z,81.79
2022-09-24T21:43:29.764Z,81.94
2022-09-24T21:46:05.006Z,82.02
2022-09-24T21:48:32.542Z,82.06
2022-09-24T21:51:07.625Z,82.25
2022-09-24T21:53:34.548Z,82.29
2022-09-24T21:56:02.511Z,82.47
2022-09-24T21:58:29.836Z,82.50
2022-09-24T22:01:01.526Z,82.63
2022-09-24T22:03:30.285Z,82.76
2022-09-24T22:05:59.525Z,82.93
2022-09-24T22:08:29.187Z,83.07
2022-09-24T22:11:07.206Z,83.16
2022-09-24T22:13:34.185Z,83.17
2022-09-24T22:16:01.895Z,83.45
2022-09-24T22:18:28.877Z,83.41
2022-09-24T22:20:56.299Z,83.63
2022-09-24T22:23:23.409Z,83.71
2022-09-24T22:25:59.231Z,83.73
2022-09-24T22:28:26.187Z,83.91
2022-09-24T22:30:53.349Z,84.08
2022-09-24T22:33:39.251Z,84.12
2022-09-24T22:36:06.565Z,84.22
2022-09-24T22:38:33.424Z,84.32
2022-09-24T22:41:00.391Z,84.12
2022-09-24T22:43:29.284Z,84.32
2022-09-24T22:45:59.540Z,84.35
2022-09-24T22:48:26.379Z,84.46
2022-09-24T22:50:53.123Z,84.50
2022-09-24T22:53:20.384Z,84.31
2022-09-24T22:55:51.854Z,84.39
2022-09-24T22:58:19.447Z,84.38
2022-09-24T23:00:46.192Z,84.37
2022-09-24T23:03:12.837Z,84.41
2022-09-24T23:05:39.657Z,84.63
2022-09-24T23:08:06.328Z,84.68
2022-09-24T23:10:33.063Z,84.66
2022-09-24T23:12:59.952Z,84.55
2022-09-24T23:15:26.912Z,84.61
2022-09-24T23:17:55.013Z,84.67
2022-09-24T23:20:22.701Z,84.67
2022-09-24T23:22:49.652Z,84.55
2022-09-24T23:25:16.604Z,84.47
2022-09-24T23:27:43.313Z,84.67
2022-09-24T23:30:10.506Z,84.74
2022-09-24T23:32:37.242Z,84.64
2022-09-24T23:35:04.190Z,84.68
2022-09-24T23:37:31.251Z,84.55
2022-09-24T23:39:58.225Z,84.59
2022-09-24T23:42:24.984Z,84.51
2022-09-24T23:44:51.619Z,84.56
2022-09-24T23:47:18.605Z,84.45
2022-09-24T23:49:45.318Z,84.35
2022-09-24T23:52:12.020Z,84.65
2022-09-24T23:54:40.315Z,84.34
2022-09-24T23:57:07.575Z,84.57
2022-09-24T23:59:34.632Z,84.52
